Terminal Aerodrome Forecast
Issued by NWS Bismarck, ND

Home | Current Version | Previous Version | Graphics & Text | Print | Product List | Glossary On
Versions: 1 2 3 4 5 6 7 8 9 10 11 12 13 14 15
456
FTUS43 KBIS 200520
TAFISN
TAF
KISN 200520Z 2006/2106 28010KT P6SM FEW110
     FM201200 23007KT P6SM FEW060 FEW250
     FM201600 23011KT P6SM FEW050 FEW200
     FM210000 22010KT P6SM BKN100
     FM210200 22006KT P6SM SCT100 BKN120=

USA.gov is the U.S. government's official web portal to all federal, state and local government web resources and services.